Tres Chorrillos Airport

SCTH · Region of Magallanes, 智利

使用的METAR站距离机场54 km。
罗盘
风向 的 风向 290° Tres Chorrillos Airport 5/23
风: 15 kt, 4 beaufort

11 kt

10 kt
改变
0 ft 5.000 10.000 15.000 20.000
Cloud Cloud Cloud Cloud
SCT 4.500
Cloud Cloud Cloud Cloud Cloud Cloud
BKN 20.000
METAR SCCI 020800Z 29015KT 9999 SCT045 BKN200 05/02 Q0998 RESHRA NOSIG

METAR Tres Chorrillos Airport - SCTH

Tres Chorrillos Airport是,智利中的小机场。 该机场位于纬度-52,52519和经度-70,72402。 该机场有一条跑道: 5/23. 本场的ICAO机场代码为SCTH。 机场在Punta Arenas FIR中。

该航空气象观测是针对Pdte. Carlos Ibañez del Campo Airport在2024年3月2日 05:00, 当地时间进行的。

机场观察

风向为290°,速度为15 kt。

可见度为10 km 或者更多。

有疏云,零星散落的云朵在4.500 ft的高度 和 碎云在20.000 ft的高度。 破损或更高的上限为20.000 ft。

温度为5 °C,阵风为-2 °C。 露点为2 °C,相对湿度为81%。 海平面上的气压为998 hPa (QNH)。 最近是阵雨 雨。

白天

今天,太阳从07:13升起,在20:36降落。 这适用于Tres Chorrillos Airport,世界夏令时可能有所不同。 当地时间与世界标准时间之间的时差为-3 小时。 当前,没有夏令时有效。

公司介绍

我们没有关于这个机场的公司信息。

体会

到Vliegles.nl去找飞行课程,跳伞和其他飞行体验。 浏览页面,了解Tres Chorrillos Airport附近所有可用的活动。 你也可以使用搜索功能来寻找你所在地附近的特定飞行课程、跳伞或其他飞行体验。

跑道

Id 标题 侧风 逆风 侧风 %
5/23 066°-246° 10 kt 11 kt 69 %

逆风成分最大的方向会被突出显示,并用于横风计算。 这并不一定意味着这个方向在使用。

乌云

4.500 ft SCT 疏云,零星散落的云朵
20.000 ft BKN 碎云

温度 & 天气

最近的 阵雨 雨
温度 5 °C
露点 2 °C
相对湿度 81%
风寒 -2 °C
Kp-index 1 (0-9)

白天

日出
07:13 (2:05)
中午
13:55
日落
20:37

小工具

你想在你的网站上有一个关于Tres Chorrillos Airport的当前航空天气(METAR)的小部件吗?

显示HTML代码
?>